createdAt,value
2022-10-23T00:00:43.999Z,82.45
2022-10-23T00:03:14.184Z,82.50
2022-10-23T00:05:45.215Z,82.89
2022-10-23T00:08:17.693Z,82.95
2022-10-23T00:10:47.764Z,82.73
2022-10-23T00:13:17.908Z,83.02
2022-10-23T00:18:41.137Z,82.98
2022-10-23T00:21:16.996Z,83.26
2022-10-23T00:23:47.494Z,82.75
2022-10-23T00:26:19.974Z,82.82
2022-10-23T00:28:51.939Z,83.21
2022-10-23T00:31:26.028Z,83.26
2022-10-23T00:33:56.249Z,82.46
2022-10-23T00:36:26.310Z,82.75
2022-10-23T00:38:57.635Z,81.53
2022-10-23T00:41:32.311Z,81.58
2022-10-23T00:44:07.079Z,81.76
2022-10-23T00:46:41.355Z,82.26
2022-10-23T00:52:06.174Z,82.67
2022-10-23T00:54:39.406Z,82.73
2022-10-23T00:57:14.420Z,82.41
2022-10-23T00:59:44.837Z,82.33
2022-10-23T01:02:18.449Z,82.55
2022-10-23T01:04:48.697Z,82.42
2022-10-23T01:07:23.146Z,82.04
2022-10-23T01:10:13.157Z,81.42
2022-10-23T01:12:50.009Z,81.47
2022-10-23T01:15:24.828Z,81.04
2022-10-23T01:18:04.803Z,81.22
2022-10-23T01:20:44.870Z,81.70
2022-10-23T01:23:29.307Z,81.65
2022-10-23T01:26:14.138Z,82.31
2022-10-23T01:28:51.527Z,82.26
2022-10-23T01:31:26.322Z,83.11
2022-10-23T01:34:02.677Z,83.16
2022-10-23T01:36:35.472Z,82.75
2022-10-23T01:39:09.879Z,82.50
2022-10-23T01:41:46.008Z,82.54
2022-10-23T01:44:25.004Z,82.48
2022-10-23T01:46:57.500Z,82.78
2022-10-23T01:49:27.805Z,82.63
2022-10-23T01:52:05.358Z,83.00
2022-10-23T01:54:41.986Z,83.03
2022-10-23T01:57:15.881Z,82.92
2022-10-23T01:59:50.430Z,83.23
2022-10-23T02:02:23.408Z,83.20
2022-10-23T02:04:59.837Z,83.13
2022-10-23T02:07:30.089Z,83.36
2022-10-23T02:10:00.240Z,83.19
2022-10-23T02:12:36.616Z,83.56
2022-10-23T02:15:15.081Z,84.03
2022-10-23T02:17:52.653Z,83.97
2022-10-23T02:20:26.759Z,83.83
2022-10-23T02:22:59.802Z,83.71
2022-10-23T02:25:36.370Z,84.07
2022-10-23T02:28:11.029Z,83.69
2022-10-23T02:30:46.943Z,84.00
2022-10-23T02:33:17.941Z,84.02
2022-10-23T02:35:49.399Z,84.21
2022-10-23T02:38:36.665Z,84.23
2022-10-23T02:41:19.084Z,84.28
2022-10-23T02:43:59.269Z,83.82
2022-10-23T02:46:45.503Z,84.37
2022-10-23T02:49:21.970Z,83.94
2022-10-23T02:52:02.752Z,84.23
2022-10-23T02:54:48.529Z,84.02
2022-10-23T02:57:25.688Z,84.34
2022-10-23T03:00:04.705Z,84.79
2022-10-23T03:02:41.872Z,85.02
2022-10-23T03:05:15.584Z,85.72
2022-10-23T03:07:47.035Z,84.96
2022-10-23T03:10:17.118Z,84.70
2022-10-23T03:12:47.538Z,84.67
2022-10-23T03:15:19.441Z,84.64
2022-10-23T03:17:52.186Z,84.61
2022-10-23T03:20:22.216Z,84.42
2022-10-23T03:22:52.352Z,84.33
2022-10-23T03:25:22.312Z,84.46
2022-10-23T03:27:54.538Z,84.95
2022-10-23T03:30:24.631Z,84.53
2022-10-23T03:32:57.236Z,84.66
2022-10-23T03:35:27.238Z,85.65
2022-10-23T03:37:57.291Z,86.05
2022-10-23T03:40:27.412Z,86.27
2022-10-23T03:42:57.549Z,86.72
2022-10-23T03:45:27.612Z,87.00
2022-10-23T03:48:00.262Z,86.80
2022-10-23T03:50:30.466Z,87.00
2022-10-23T03:53:00.712Z,86.90
2022-10-23T03:55:31.420Z,87.32
2022-10-23T03:58:01.647Z,86.53
2022-10-23T04:00:31.792Z,86.02
2022-10-23T04:03:04.523Z,85.99
2022-10-23T04:05:34.473Z,85.92
2022-10-23T04:08:05.162Z,86.14
2022-10-23T04:10:35.153Z,85.81
2022-10-23T04:13:05.220Z,86.21
2022-10-23T04:15:35.238Z,85.92
2022-10-23T04:18:08.452Z,86.00
2022-10-23T04:20:38.489Z,86.44
2022-10-23T04:23:08.794Z,85.95
2022-10-23T04:25:38.875Z,86.00
2022-10-23T04:28:09.001Z,86.10
2022-10-23T04:30:39.001Z,85.73
2022-10-23T04:33:11.668Z,86.09
2022-10-23T04:35:41.694Z,86.16
2022-10-23T04:38:11.680Z,86.30
2022-10-23T04:40:41.664Z,85.88
2022-10-23T04:43:12.070Z,86.77
2022-10-23T04:45:42.076Z,86.57
2022-10-23T04:48:15.985Z,87.10
2022-10-23T04:53:36.137Z,87.11
2022-10-23T04:56:06.231Z,87.05
2022-10-23T04:58:37.410Z,86.73
2022-10-23T05:01:07.597Z,87.24
2022-10-23T05:03:41.056Z,86.87
2022-10-23T05:06:11.127Z,86.66
2022-10-23T05:08:41.250Z,86.87
2022-10-23T05:11:11.276Z,87.01
2022-10-23T05:13:42.257Z,87.10
2022-10-23T05:16:12.628Z,86.87
2022-10-23T05:18:53.049Z,86.80
2022-10-23T05:21:26.534Z,86.63
2022-10-23T05:23:57.573Z,86.81
2022-10-23T05:26:28.226Z,86.99
2022-10-23T05:28:58.247Z,86.67
2022-10-23T05:31:28.827Z,86.11
2022-10-23T05:34:01.489Z,85.67
2022-10-23T05:36:31.613Z,87.32
2022-10-23T05:39:05.001Z,86.50
2022-10-23T05:41:35.112Z,85.91
2022-10-23T05:44:05.191Z,85.74
2022-10-23T05:46:35.204Z,85.39
2022-10-23T05:49:07.961Z,84.83
2022-10-23T05:51:39.618Z,84.76
2022-10-23T05:54:10.600Z,84.31
2022-10-23T05:56:42.304Z,83.98
2022-10-23T05:59:13.169Z,84.06
2022-10-23T06:01:43.604Z,83.46
2022-10-23T06:04:16.334Z,82.98
2022-10-23T06:06:49.181Z,82.36
2022-10-23T06:09:19.472Z,82.01
2022-10-23T06:11:50.309Z,82.17
2022-10-23T06:14:20.497Z,81.57
2022-10-23T06:16:50.620Z,81.66
2022-10-23T06:19:23.336Z,80.80
2022-10-23T06:21:53.390Z,79.80
2022-10-23T06:24:23.600Z,78.77
2022-10-23T06:26:53.557Z,78.33
2022-10-23T06:29:23.878Z,77.35
2022-10-23T06:31:53.926Z,75.52
2022-10-23T06:34:26.653Z,73.95
2022-10-23T06:36:56.742Z,72.09
2022-10-23T06:39:29.772Z,70.43
2022-10-23T06:42:02.122Z,68.99
2022-10-23T06:44:32.321Z,68.56
2022-10-23T06:47:02.421Z,67.48
2022-10-23T06:49:35.220Z,67.02
2022-10-23T06:52:05.214Z,66.45
2022-10-23T06:54:35.430Z,65.90
2022-10-23T06:57:05.559Z,64.07
2022-10-23T06:59:35.775Z,63.99
2022-10-23T07:02:06.423Z,63.85
2022-10-23T07:04:41.637Z,64.31
2022-10-23T07:07:11.727Z,63.74
2022-10-23T07:09:41.819Z,63.26
2022-10-23T07:12:12.016Z,62.49
2022-10-23T07:14:42.146Z,61.88
2022-10-23T07:17:12.240Z,62.42
2022-10-23T07:19:44.966Z,61.09
2022-10-23T07:22:16.094Z,62.04
2022-10-23T07:24:46.341Z,62.02
2022-10-23T07:27:16.452Z,62.68
2022-10-23T07:29:46.629Z,61.66
2022-10-23T07:32:16.735Z,61.17
2022-10-23T07:34:49.435Z,60.86
2022-10-23T07:37:19.542Z,61.00
2022-10-23T07:39:49.675Z,60.56
2022-10-23T07:42:19.793Z,61.09
2022-10-23T07:44:49.825Z,60.61
2022-10-23T07:47:19.890Z,60.12
2022-10-23T07:49:53.223Z,59.60
2022-10-23T07:52:23.352Z,58.95
2022-10-23T07:54:54.180Z,59.16
2022-10-23T07:57:24.335Z,58.54
2022-10-23T07:59:54.760Z,58.70
2022-10-23T08:02:25.807Z,59.27
2022-10-23T08:05:00.554Z,58.84
2022-10-23T08:07:33.792Z,59.85
2022-10-23T08:10:03.887Z,58.23
2022-10-23T08:12:34.029Z,57.72
2022-10-23T08:15:04.604Z,58.50
2022-10-23T08:17:34.770Z,58.17
2022-10-23T08:20:08.779Z,57.82
2022-10-23T08:22:39.175Z,57.65
2022-10-23T08:25:09.750Z,56.71
2022-10-23T08:27:40.049Z,56.21
2022-10-23T08:30:11.472Z,56.71
2022-10-23T08:32:41.741Z,56.68
2022-10-23T08:35:14.480Z,55.49
2022-10-23T08:37:44.938Z,55.04
2022-10-23T08:40:18.653Z,54.40
2022-10-23T08:42:55.368Z,52.86
2022-10-23T08:45:34.190Z,52.05
2022-10-23T08:48:12.841Z,51.23
2022-10-23T08:50:52.387Z,50.29
2022-10-23T08:53:28.492Z,49.92
2022-10-23T08:56:04.969Z,49.02
2022-10-23T08:58:45.952Z,49.88
2022-10-23T09:01:39.131Z,49.99
2022-10-23T09:04:09.641Z,49.49
2022-10-23T09:06:47.335Z,50.19
2022-10-23T09:09:34.971Z,49.76
2022-10-23T09:12:10.058Z,50.72
2022-10-23T09:15:05.662Z,51.74
2022-10-23T09:17:38.104Z,53.08
2022-10-23T09:20:27.408Z,53.00
2022-10-23T09:23:02.961Z,55.21
2022-10-23T09:25:41.272Z,56.05
2022-10-23T09:28:20.795Z,56.57
2022-10-23T09:30:52.239Z,56.11
2022-10-23T09:33:25.762Z,56.14
2022-10-23T09:36:00.781Z,55.76
2022-10-23T09:38:35.772Z,55.50
2022-10-23T09:41:13.990Z,55.30
2022-10-23T09:43:45.324Z,54.26
2022-10-23T09:46:15.785Z,55.25
2022-10-23T09:48:45.823Z,55.11
2022-10-23T09:51:21.675Z,54.85
2022-10-23T09:54:00.540Z,54.81
2022-10-23T09:56:34.234Z,54.91
2022-10-23T09:59:07.574Z,54.46
2022-10-23T10:01:48.289Z,54.59
2022-10-23T10:04:18.493Z,54.45
2022-10-23T10:07:02.008Z,53.11
2022-10-23T10:09:34.901Z,54.36
2022-10-23T10:12:23.016Z,54.83
2022-10-23T10:15:23.391Z,53.84
2022-10-23T10:18:04.919Z,55.11
2022-10-23T10:20:53.261Z,54.27
2022-10-23T10:23:35.354Z,54.86
2022-10-23T10:26:18.647Z,55.70
2022-10-23T10:28:58.441Z,55.32
2022-10-23T10:31:40.107Z,55.79
2022-10-23T10:34:18.125Z,55.93
2022-10-23T10:36:53.792Z,55.71
2022-10-23T10:39:38.475Z,56.89
2022-10-23T10:42:34.048Z,56.68
2022-10-23T10:45:19.856Z,55.83
2022-10-23T10:48:04.263Z,56.73
2022-10-23T10:50:42.880Z,57.26
2022-10-23T10:53:22.887Z,57.86
2022-10-23T10:55:56.493Z,57.30
2022-10-23T10:58:38.918Z,58.02
2022-10-23T11:01:18.692Z,58.44
2022-10-23T11:03:55.045Z,57.60
2022-10-23T11:06:30.073Z,57.89
2022-10-23T11:09:19.926Z,57.17
2022-10-23T11:11:53.242Z,57.95
2022-10-23T11:14:28.289Z,58.71
2022-10-23T11:17:17.161Z,58.96
2022-10-23T11:19:52.369Z,59.75
2022-10-23T11:22:30.550Z,59.88
2022-10-23T11:25:49.644Z,58.87
2022-10-23T11:28:31.270Z,59.33
2022-10-23T11:31:12.287Z,58.74
2022-10-23T11:34:16.578Z,58.27
2022-10-23T11:36:49.028Z,58.56
2022-10-23T11:39:23.391Z,58.91
2022-10-23T11:41:56.251Z,59.63
2022-10-23T11:44:30.578Z,59.04
2022-10-23T11:47:09.292Z,59.51
2022-10-23T11:49:39.400Z,58.56
2022-10-23T11:52:25.204Z,59.19
2022-10-23T11:55:04.918Z,58.75
2022-10-23T11:57:35.336Z,58.11
2022-10-23T12:00:06.024Z,58.63
2022-10-23T12:02:41.845Z,57.99
2022-10-23T12:05:34.943Z,58.66
2022-10-23T12:08:08.337Z,58.54
2022-10-23T12:10:46.626Z,58.75
2022-10-23T12:13:33.092Z,58.83
2022-10-23T12:16:03.268Z,58.73
2022-10-23T12:18:36.546Z,59.45
2022-10-23T12:21:07.456Z,59.21
2022-10-23T12:24:05.906Z,59.22
2022-10-23T12:26:51.448Z,59.45
2022-10-23T12:29:36.031Z,58.62
2022-10-23T12:32:20.068Z,59.54
2022-10-23T12:35:00.139Z,58.42
2022-10-23T12:37:59.566Z,58.03
2022-10-23T12:40:30.290Z,58.15
2022-10-23T12:43:05.075Z,56.84
2022-10-23T12:45:42.686Z,56.25
2022-10-23T12:48:22.318Z,57.24
2022-10-23T12:50:57.651Z,56.71
2022-10-23T12:53:27.859Z,56.45
2022-10-23T12:56:01.654Z,55.99
2022-10-23T12:58:34.149Z,56.44
2022-10-23T13:01:06.658Z,56.32
2022-10-23T13:03:37.858Z,56.43
2022-10-23T13:06:14.446Z,56.78
2022-10-23T13:08:47.761Z,56.60
2022-10-23T13:11:21.624Z,56.74
2022-10-23T13:13:51.862Z,56.88
2022-10-23T13:16:25.006Z,56.97
2022-10-23T13:18:56.234Z,57.01
2022-10-23T13:21:32.850Z,56.27
2022-10-23T13:24:03.101Z,55.26
2022-10-23T13:26:42.969Z,55.37
2022-10-23T13:29:22.704Z,55.46
2022-10-23T13:31:53.607Z,56.20
2022-10-23T13:34:29.835Z,56.73
2022-10-23T13:37:05.632Z,57.72
2022-10-23T13:39:37.182Z,58.78
2022-10-23T13:42:16.519Z,59.50
2022-10-23T13:44:46.977Z,60.00
2022-10-23T13:47:18.840Z,60.10
2022-10-23T13:49:49.408Z,59.35
2022-10-23T13:52:24.341Z,58.98
2022-10-23T13:54:54.877Z,58.90
2022-10-23T13:57:25.205Z,59.67
2022-10-23T13:59:55.809Z,59.20
2022-10-23T14:02:26.755Z,60.27
2022-10-23T14:04:57.061Z,60.26
2022-10-23T14:07:30.923Z,60.51
2022-10-23T14:10:01.303Z,61.16
2022-10-23T14:12:33.539Z,60.97
2022-10-23T14:15:03.746Z,61.29
2022-10-23T14:17:36.154Z,61.16
2022-10-23T14:20:07.428Z,61.44
2022-10-23T14:22:40.485Z,61.68
2022-10-23T14:25:11.611Z,61.82
2022-10-23T14:27:41.921Z,62.69
2022-10-23T14:30:14.294Z,63.40
2022-10-23T14:32:45.508Z,63.62
2022-10-23T14:35:16.089Z,63.44
2022-10-23T14:37:49.110Z,64.46
2022-10-23T14:40:19.419Z,64.48
2022-10-23T14:42:49.981Z,64.48
2022-10-23T14:45:21.786Z,64.83
2022-10-23T14:47:52.631Z,64.78
2022-10-23T14:50:22.945Z,65.66
2022-10-23T14:52:56.964Z,65.75
2022-10-23T14:55:27.342Z,66.61
2022-10-23T14:57:58.430Z,66.56
2022-10-23T15:00:29.679Z,66.99
2022-10-23T15:03:01.263Z,67.77
2022-10-23T15:05:32.034Z,67.52
2022-10-23T15:08:04.906Z,68.80
2022-10-23T15:10:40.094Z,68.68
2022-10-23T15:13:10.734Z,68.64
2022-10-23T15:15:41.414Z,68.96
2022-10-23T15:18:12.609Z,69.67
2022-10-23T15:20:45.858Z,70.18
2022-10-23T15:23:21.062Z,70.83
2022-10-23T15:25:58.289Z,70.94
2022-10-23T15:28:29.464Z,72.02
2022-10-23T15:31:00.101Z,72.87
2022-10-23T15:33:31.069Z,72.48
2022-10-23T15:36:04.340Z,72.97
2022-10-23T15:38:37.297Z,73.43
2022-10-23T15:41:18.254Z,73.26
2022-10-23T15:46:39.173Z,73.90
2022-10-23T15:49:11.396Z,74.51
2022-10-23T15:51:43.869Z,74.74
2022-10-23T15:54:19.288Z,75.11
2022-10-23T15:56:51.354Z,75.51
2022-10-23T15:59:23.933Z,75.72
2022-10-23T16:01:56.127Z,75.73
2022-10-23T16:04:28.656Z,76.19
2022-10-23T16:06:59.223Z,76.58
2022-10-23T16:09:35.748Z,76.75
2022-10-23T16:12:06.054Z,76.95
2022-10-23T16:14:39.477Z,76.97
2022-10-23T16:17:10.414Z,76.96
2022-10-23T16:19:40.926Z,77.21
2022-10-23T16:22:11.341Z,77.62
2022-10-23T16:24:44.435Z,77.70
2022-10-23T16:27:15.158Z,77.79
2022-10-23T16:29:46.328Z,77.91
2022-10-23T16:32:16.813Z,78.14
2022-10-23T16:34:47.273Z,78.04
2022-10-23T16:37:17.625Z,77.90
2022-10-23T16:39:51.140Z,78.06
2022-10-23T16:42:21.199Z,77.87
2022-10-23T16:44:52.154Z,77.80
2022-10-23T16:47:22.509Z,78.02
2022-10-23T16:49:53.454Z,77.78
2022-10-23T16:52:23.714Z,78.17
2022-10-23T16:54:57.222Z,78.22
2022-10-23T16:57:28.130Z,78.30
2022-10-23T16:59:58.883Z,78.39
2022-10-23T17:02:30.589Z,77.95
2022-10-23T17:05:01.258Z,78.27
2022-10-23T17:07:31.619Z,78.30
2022-10-23T17:10:08.093Z,78.45
2022-10-23T17:12:39.057Z,78.14
2022-10-23T17:15:11.387Z,77.80
2022-10-23T17:17:45.267Z,77.77
2022-10-23T17:20:16.958Z,78.05
2022-10-23T17:22:47.468Z,78.11
2022-10-23T17:25:20.528Z,78.46
2022-10-23T17:27:52.175Z,78.46
2022-10-23T17:30:25.122Z,78.16
2022-10-23T17:32:58.222Z,78.56
2022-10-23T17:35:31.767Z,78.29
2022-10-23T17:38:02.217Z,78.11
2022-10-23T17:40:36.171Z,78.67
2022-10-23T17:43:07.277Z,78.75
2022-10-23T17:45:40.491Z,78.46
2022-10-23T17:48:11.640Z,78.39
2022-10-23T17:50:42.274Z,78.14
2022-10-23T17:53:12.722Z,78.49
2022-10-23T17:55:46.039Z,78.41
2022-10-23T17:58:16.784Z,78.56
2022-10-23T18:00:47.165Z,78.25
2022-10-23T18:03:19.879Z,78.44
2022-10-23T18:05:50.935Z,78.71
2022-10-23T18:08:21.495Z,78.69
2022-10-23T18:10:54.734Z,78.60
2022-10-23T18:13:29.665Z,78.33
2022-10-23T18:16:03.750Z,78.57
2022-10-23T18:18:35.284Z,78.28
2022-10-23T18:21:06.434Z,78.49
2022-10-23T18:23:37.682Z,78.67
2022-10-23T18:26:18.023Z,78.69
2022-10-23T18:28:52.449Z,78.30
2022-10-23T18:31:25.197Z,78.49
2022-10-23T18:33:58.967Z,78.41
2022-10-23T18:36:33.297Z,78.00
2022-10-23T18:39:03.826Z,78.03
2022-10-23T18:41:40.612Z,77.95
2022-10-23T18:44:11.805Z,77.72
2022-10-23T18:46:42.715Z,77.34
2022-10-23T18:49:13.711Z,77.95
2022-10-23T18:51:44.722Z,77.63
2022-10-23T18:54:17.968Z,77.88
2022-10-23T18:56:53.106Z,77.82
2022-10-23T18:59:24.387Z,78.30
2022-10-23T19:01:55.469Z,78.79
2022-10-23T19:04:25.934Z,78.66
2022-10-23T19:06:56.437Z,78.64
2022-10-23T19:09:27.013Z,78.57
2022-10-23T19:12:04.568Z,78.15
2022-10-23T19:14:37.628Z,78.37
2022-10-23T19:17:15.406Z,78.52
2022-10-23T19:19:49.718Z,78.72
2022-10-23T19:22:20.681Z,78.42
2022-10-23T19:24:57.201Z,78.25
2022-10-23T19:27:31.016Z,78.96
2022-10-23T19:30:05.633Z,78.71
2022-10-23T19:32:36.191Z,78.55
2022-10-23T19:35:06.860Z,78.76
2022-10-23T19:37:37.978Z,79.22
2022-10-23T19:40:11.517Z,79.37
2022-10-23T19:42:45.545Z,79.02
2022-10-23T19:45:17.872Z,78.85
2022-10-23T19:47:51.389Z,78.86
2022-10-23T19:50:22.051Z,79.07
2022-10-23T19:52:53.875Z,78.88
2022-10-23T19:55:24.294Z,78.73
2022-10-23T19:57:57.514Z,78.61
2022-10-23T20:00:28.302Z,78.62
2022-10-23T20:02:59.027Z,78.79
2022-10-23T20:05:29.569Z,78.70
2022-10-23T20:08:01.809Z,78.77
2022-10-23T20:10:32.403Z,78.77
2022-10-23T20:13:18.634Z,78.88
2022-10-23T20:15:50.330Z,78.54
2022-10-23T20:18:20.917Z,78.52
2022-10-23T20:20:51.555Z,79.05
2022-10-23T20:23:21.950Z,78.81
2022-10-23T20:25:52.166Z,78.78
2022-10-23T20:28:25.056Z,78.62
2022-10-23T20:30:55.367Z,78.71
2022-10-23T20:33:25.713Z,79.15
2022-10-23T20:36:09.992Z,78.92
2022-10-23T20:38:40.325Z,78.92
2022-10-23T20:41:10.620Z,78.95
2022-10-23T20:43:44.086Z,78.84
2022-10-23T20:46:14.937Z,78.87
2022-10-23T20:48:46.993Z,78.52
2022-10-23T20:51:20.142Z,78.83
2022-10-23T20:53:50.931Z,78.62
2022-10-23T20:56:23.693Z,78.77
2022-10-23T20:58:56.409Z,78.58
2022-10-23T21:01:26.944Z,79.01
2022-10-23T21:03:59.007Z,78.61
2022-10-23T21:06:45.791Z,78.80
2022-10-23T21:09:22.158Z,78.84
2022-10-23T21:11:52.217Z,78.59
2022-10-23T21:14:24.885Z,78.66
2022-10-23T21:16:55.299Z,78.52
2022-10-23T21:19:25.388Z,78.94
2022-10-23T21:21:55.432Z,78.83
2022-10-23T21:24:25.990Z,78.68
2022-10-23T21:26:56.349Z,78.78
2022-10-23T21:29:28.938Z,78.80
2022-10-23T21:32:01.232Z,78.78
2022-10-23T21:34:31.597Z,78.38
2022-10-23T21:37:17.702Z,78.65
2022-10-23T21:39:48.985Z,78.50
2022-10-23T21:42:19.299Z,78.48
2022-10-23T21:44:51.941Z,78.49
2022-10-23T21:47:22.103Z,78.72
2022-10-23T21:49:52.068Z,78.30
2022-10-23T21:52:22.224Z,78.49
2022-10-23T21:54:54.740Z,78.68
2022-10-23T21:57:24.796Z,78.69
2022-10-23T21:59:57.431Z,78.71
2022-10-23T22:02:28.051Z,78.74
2022-10-23T22:04:58.114Z,78.47
2022-10-23T22:09:59.130Z,78.84
2022-10-23T22:12:31.621Z,78.17
2022-10-23T22:15:04.290Z,78.66
2022-10-23T22:17:34.338Z,78.30
2022-10-23T22:20:04.411Z,78.62
2022-10-23T22:22:34.494Z,78.44
2022-10-23T22:25:04.566Z,78.98
2022-10-23T22:27:34.577Z,78.66
2022-10-23T22:30:08.221Z,78.41
2022-10-23T22:32:38.734Z,78.15
2022-10-23T22:35:09.790Z,77.98
2022-10-23T22:37:39.855Z,78.35
2022-10-23T22:40:10.957Z,78.39
2022-10-23T22:42:41.162Z,78.52
2022-10-23T22:45:14.141Z,78.40
2022-10-23T22:47:44.209Z,78.47
2022-10-23T22:50:14.491Z,78.41
2022-10-23T22:52:44.903Z,78.21
2022-10-23T22:55:15.276Z,78.64
2022-10-23T22:57:45.648Z,78.51
2022-10-23T23:00:19.832Z,78.44
2022-10-23T23:02:49.921Z,78.27
2022-10-23T23:05:19.954Z,78.81
2022-10-23T23:07:50.244Z,78.96
2022-10-23T23:10:20.675Z,78.88
2022-10-23T23:12:53.217Z,78.66
2022-10-23T23:15:25.909Z,78.79
2022-10-23T23:17:56.053Z,78.60
2022-10-23T23:20:26.167Z,78.53
2022-10-23T23:22:56.157Z,78.60
2022-10-23T23:25:26.203Z,78.96
2022-10-23T23:27:56.352Z,79.23
2022-10-23T23:30:29.022Z,79.12
2022-10-23T23:32:59.100Z,79.53
2022-10-23T23:35:29.545Z,79.22
2022-10-23T23:37:59.690Z,79.40
2022-10-23T23:40:29.737Z,79.47
2022-10-23T23:42:59.834Z,78.99
2022-10-23T23:45:32.980Z,79.05
2022-10-23T23:48:03.207Z,78.44
2022-10-23T23:50:33.301Z,78.65
2022-10-23T23:53:03.361Z,79.23
2022-10-23T23:55:33.529Z,79.36
2022-10-23T23:58:03.741Z,79.32
